Time;durP1;ratioP1;P1;durP2;ratioP2;P2;SDS_P1;SDS_P2;PMS_P1;PMS_P2;Temp;Humidity;BMP_temperature;BMP_pressure;BME280_temperature;BME280_humidity;BME280_pressure;Samples;Min_cycle;Max_cycle;Signal;HPM_P1;HPM_P2
2022/04/19 00:02:23;;;;;;;14.80;10.40;;;8.00;99.90;;;;;;5054482;28;20040;-90
2022/04/19 00:04:49;;;;;;;14.57;9.40;;;6.70;99.90;;;;;;5050621;28;20048;-84
2022/04/19 00:07:14;;;;;;;15.48;9.43;;;6.70;99.90;;;;;;5019614;28;20044;-84
2022/04/19 00:09:40;;;;;;;15.32;9.45;;;6.60;99.90;;;;;;5049752;28;20033;-84
2022/04/19 00:12:06;;;;;;;14.23;9.13;;;6.60;99.90;;;;;;5044316;28;20056;-84
2022/04/19 00:14:34;;;;;;;13.95;8.82;;;6.60;99.90;;;;;;5034182;28;20437;-84
2022/04/19 00:16:59;;;;;;;14.75;8.98;;;5.70;99.90;;;;;;5035987;28;20051;-84
2022/04/19 00:19:27;;;;;;;12.70;9.00;;;6.50;99.90;;;;;;5052281;28;20045;-84
2022/04/19 00:21:53;;;;;;;12.63;8.98;;;6.50;99.90;;;;;;5052621;28;20041;-84
2022/04/19 00:24:19;;;;;;;13.20;8.75;;;6.50;99.90;;;;;;5051598;28;20047;-84
2022/04/19 00:26:44;;;;;;;11.23;8.57;;;7.00;99.90;;;;;;5052900;28;20041;-89
2022/04/19 00:29:10;;;;;;;14.23;8.98;;;6.40;99.90;;;;;;5049490;28;20037;-89
2022/04/19 00:31:36;;;;;;;13.07;8.45;;;6.30;99.90;;;;;;5024900;28;20482;-90
2022/04/19 00:34:02;;;;;;;12.40;9.10;;;6.30;99.90;;;;;;5037000;28;20040;-90
2022/04/19 00:36:28;;;;;;;12.38;9.45;;;6.60;99.90;;;;;;5037020;28;20041;-90
2022/04/19 00:38:54;;;;;;;14.88;9.32;;;6.30;99.90;;;;;;5028014;28;20071;-89
2022/04/19 00:41:20;;;;;;;14.68;9.70;;;6.30;99.90;;;;;;5050693;28;20053;-89
2022/04/19 00:43:45;;;;;;;11.85;9.15;;;7.00;99.90;;;;;;5034873;28;20048;-83
2022/04/19 00:46:11;;;;;;;12.27;8.85;;;6.20;99.90;;;;;;5017472;28;20037;-83
2022/04/19 00:48:37;;;;;;;14.52;8.98;;;6.20;99.90;;;;;;5050563;28;20479;-83
2022/04/19 00:51:04;;;;;;;12.00;8.82;;;6.20;99.90;;;;;;5054994;28;20553;-90
2022/04/19 00:53:29;;;;;;;14.65;9.15;;;6.70;99.90;;;;;;5037026;28;20574;-90
2022/04/19 00:55:57;;;;;;;10.63;8.27;;;6.20;99.90;;;;;;5053376;28;20112;-90
2022/04/19 00:58:23;;;;;;;14.70;8.57;;;6.10;99.90;;;;;;5035853;28;20064;-88
2022/04/19 01:00:50;;;;;;;12.63;8.63;;;6.10;99.90;;;;;;5053473;28;20077;-88
2022/04/19 01:03:16;;;;;;;11.65;8.43;;;5.90;99.90;;;;;;5042661;28;20048;-88
2022/04/19 01:05:46;;;;;;;11.85;8.73;;;6.00;99.90;;;;;;5066504;28;20045;-84
2022/04/19 01:08:13;;;;;;;12.90;8.77;;;6.30;99.90;;;;;;5051126;28;20036;-84
2022/04/19 01:10:40;;;;;;;12.10;8.85;;;6.00;99.90;;;;;;5051652;28;20052;-84
2022/04/19 01:13:17;;;;;;;12.45;8.85;;;5.80;99.90;;;;;;5034603;28;20044;-84
2022/04/19 01:15:50;;;;;;;10.95;7.70;;;;;;;;;;5052418;28;20124;-89
2022/04/19 01:18:24;;;;;;;13.45;8.60;;;5.80;99.90;;;;;;5035748;28;20056;-90
2022/04/19 01:20:50;;;;;;;12.35;8.93;;;5.80;99.90;;;;;;5052787;28;20037;-90
2022/04/19 01:23:21;;;;;;;14.23;8.30;;;6.10;99.90;;;;;;5053076;28;20036;-90
2022/04/19 01:25:47;;;;;;;11.07;7.60;;;6.10;99.90;;;;;;5052317;28;20044;-90
2022/04/19 01:28:12;;;;;;;12.43;9.07;;;5.70;99.90;;;;;;5051552;28;20033;-84
2022/04/19 01:30:40;;;;;;;13.48;8.85;;;5.70;99.90;;;;;;5034168;28;20456;-84
2022/04/19 01:33:06;;;;;;;12.40;8.70;;;5.70;99.90;;;;;;5050902;28;20072;-83
2022/04/19 01:35:32;;;;;;;11.10;8.00;;;5.60;99.90;;;;;;5017205;28;20079;-84
2022/04/19 01:37:57;;;;;;;13.68;8.73;;;5.60;99.90;;;;;;5031184;28;20451;-83
2022/04/19 01:40:23;;;;;;;15.02;8.77;;;5.60;99.90;;;;;;5032268;28;20045;-84
2022/04/19 01:42:58;;;;;;;11.75;8.43;;;6.70;99.90;;;;;;5052072;28;20526;-84
2022/04/19 01:45:26;;;;;;;11.55;8.73;;;5.50;99.90;;;;;;5049080;28;20086;-84
2022/04/19 01:47:53;;;;;;;11.82;8.70;;;5.50;99.90;;;;;;5051489;28;20056;-84
2022/04/19 01:50:20;;;;;;;12.30;8.40;;;5.40;99.90;;;;;;5053650;28;20119;-88
2022/04/19 01:52:47;;;;;;;13.15;8.55;;;5.40;99.90;;;;;;5052609;28;20444;-88
2022/04/19 01:55:15;;;;;;;12.00;8.07;;;5.40;99.90;;;;;;5049426;28;20080;-88
2022/04/19 01:57:47;;;;;;;13.27;8.73;;;6.30;99.90;;;;;;5052268;28;20037;-88
2022/04/19 02:00:14;;;;;;;13.02;9.20;;;5.40;99.90;;;;;;5039735;28;20474;-88
2022/04/19 02:02:40;;;;;;;14.38;8.75;;;5.30;99.90;;;;;;5035682;28;20128;-88
2022/04/19 02:05:07;;;;;;;15.98;9.02;;;5.30;99.90;;;;;;5041783;28;20033;-88
2022/04/19 02:07:37;;;;;;;11.93;8.45;;;5.20;99.90;;;;;;5033959;28;20041;-88
2022/04/19 02:10:04;;;;;;;13.30;9.00;;;5.70;99.90;;;;;;5051347;28;20490;-88
2022/04/19 02:12:31;;;;;;;15.43;8.90;;;5.20;99.90;;;;;;5050620;28;20068;-84
2022/04/19 02:14:57;;;;;;;14.38;9.65;;;5.20;99.90;;;;;;5033302;28;20506;-84
2022/04/19 02:17:23;;;;;;;16.10;9.25;;;5.20;99.90;;;;;;5049138;28;20039;-84
2022/04/19 02:20:04;;;;;;;14.55;10.10;;;5.70;99.90;;;;;;5050045;28;20049;-84
2022/04/19 02:22:30;;;;;;;12.20;9.10;;;5.10;99.90;;;;;;5049419;28;20044;-89
2022/04/19 02:24:58;;;;;;;13.23;9.90;;;5.40;99.90;;;;;;5051544;28;20079;-88
2022/04/19 02:27:24;;;;;;;12.85;9.02;;;6.00;99.90;;;;;;5049026;28;20047;-88
2022/04/19 02:29:50;;;;;;;10.52;8.13;;;5.00;99.90;;;;;;5034601;28;20032;-88
2022/04/19 02:32:16;;;;;;;13.90;9.50;;;5.00;99.90;;;;;;5028350;28;20037;-88
2022/04/19 02:34:42;;;;;;;14.57;9.23;;;5.80;99.90;;;;;;5032260;28;20138;-88
2022/04/19 02:37:08;;;;;;;15.00;9.60;;;5.10;99.90;;;;;;5050182;28;20407;-88
2022/04/19 02:39:34;;;;;;;14.25;9.73;;;4.90;99.90;;;;;;5052021;28;20041;-89
2022/04/19 02:41:59;;;;;;;12.35;9.25;;;4.90;99.90;;;;;;5051874;28;20123;-89
2022/04/19 02:44:25;;;;;;;12.55;9.40;;;4.80;99.90;;;;;;5032651;28;20052;-89
2022/04/19 02:46:51;;;;;;;14.18;9.35;;;4.80;99.90;;;;;;5027255;28;20574;-89
2022/04/19 02:49:16;;;;;;;15.30;10.23;;;4.80;99.90;;;;;;5047572;28;20063;-89
2022/04/19 02:51:42;;;;;;;14.57;9.50;;;4.80;99.90;;;;;;5031776;28;20572;-90
2022/04/19 02:54:08;;;;;;;14.60;9.60;;;4.70;99.90;;;;;;5048302;28;20159;-89
2022/04/19 02:56:33;;;;;;;13.35;9.68;;;5.70;99.90;;;;;;5051243;28;20094;-88
2022/04/19 02:59:00;;;;;;;14.90;10.60;;;5.60;99.90;;;;;;5050769;28;20379;-88
2022/04/19 03:01:26;;;;;;;16.50;10.70;;;4.70;99.90;;;;;;5032053;28;20045;-88
2022/04/19 03:03:52;;;;;;;13.65;9.52;;;4.70;99.90;;;;;;5050011;28;20102;-88
2022/04/19 03:06:18;;;;;;;16.80;9.77;;;4.70;99.90;;;;;;5051244;28;20045;-88
2022/04/19 03:08:44;;;;;;;16.77;10.63;;;4.70;99.90;;;;;;5054157;28;20040;-88
2022/04/19 03:11:10;;;;;;;15.48;10.73;;;4.70;99.90;;;;;;5054996;28;20501;-88
2022/04/19 03:13:36;;;;;;;16.90;10.10;;;4.60;99.90;;;;;;5053985;28;20131;-84
2022/04/19 03:16:03;;;;;;;14.82;10.35;;;5.00;99.90;;;;;;5037470;28;20116;-84
2022/04/19 03:18:30;;;;;;;16.17;9.43;;;4.60;99.90;;;;;;5053356;28;20053;-84
2022/04/19 03:20:57;;;;;;;15.25;10.70;;;4.60;99.90;;;;;;5053231;28;20391;-84
2022/04/19 03:28:51;;;;;;;15.63;10.50;;;4.50;99.90;;;;;;5039356;28;20481;-89
2022/04/19 03:31:16;;;;;;;16.20;11.30;;;4.50;99.90;;;;;;5055346;28;20160;-89
2022/04/19 03:33:42;;;;;;;17.20;10.98;;;4.50;99.90;;;;;;5036389;28;20446;-89
2022/04/19 03:36:08;;;;;;;16.38;11.30;;;4.50;99.90;;;;;;5055412;28;20089;-89
2022/04/19 03:38:35;;;;;;;18.17;11.82;;;4.60;99.90;;;;;;5038431;28;20071;-89
2022/04/19 03:41:02;;;;;;;16.23;11.73;;;4.50;99.90;;;;;;5055076;28;20072;-90
2022/04/19 03:43:27;;;;;;;15.75;10.82;;;4.50;99.90;;;;;;5054950;28;20434;-90
2022/04/19 03:45:53;;;;;;;17.33;11.77;;;4.40;99.90;;;;;;5055430;28;20402;-88
2022/04/19 03:48:19;;;;;;;17.00;11.68;;;4.70;99.90;;;;;;5005637;28;20044;-88
2022/04/19 03:50:45;;;;;;;17.55;11.77;;;4.40;99.90;;;;;;5054595;28;20078;-88
2022/04/19 03:53:11;;;;;;;19.20;11.88;;;4.40;99.90;;;;;;5038408;28;20356;-88
2022/04/19 03:55:36;;;;;;;18.55;12.00;;;4.40;99.90;;;;;;5054919;28;20040;-88
2022/04/19 03:58:03;;;;;;;16.73;12.18;;;4.60;99.90;;;;;;5036368;28;20043;-90
2022/04/19 04:00:29;;;;;;;16.92;11.98;;;4.40;99.90;;;;;;5038297;28;20544;-89
2022/04/19 04:02:55;;;;;;;17.40;11.85;;;4.40;99.90;;;;;;5050857;28;20034;-88
2022/04/19 04:05:24;;;;;;;17.63;11.70;;;4.60;99.90;;;;;;5054364;28;20079;-88
2022/04/19 04:07:50;;;;;;;20.95;12.38;;;4.40;99.90;;;;;;5054703;28;20083;-88
2022/04/19 04:10:16;;;;;;;17.17;12.15;;;4.40;99.90;;;;;;5050913;28;20033;-89
2022/04/19 04:12:42;;;;;;;19.25;11.50;;;4.40;99.90;;;;;;5054614;28;20402;-88
2022/04/19 04:15:08;;;;;;;17.02;11.63;;;4.40;99.90;;;;;;5054773;28;20029;-88
2022/04/19 04:17:33;;;;;;;18.48;11.93;;;4.40;99.90;;;;;;5029667;28;20472;-88
2022/04/19 04:19:59;;;;;;;17.52;11.10;;;4.40;99.90;;;;;;5048984;28;20110;-90
2022/04/19 04:22:25;;;;;;;17.75;12.02;;;4.40;99.90;;;;;;5054054;28;20044;-90
2022/04/19 04:24:51;;;;;;;21.52;11.95;;;4.30;99.90;;;;;;5054256;28;20045;-89
2022/04/19 04:27:17;;;;;;;21.70;11.95;;;4.50;99.90;;;;;;5035851;28;20041;-89
2022/04/19 04:29:43;;;;;;;19.60;12.07;;;4.30;99.90;;;;;;5054060;28;20087;-89
2022/04/19 04:32:08;;;;;;;17.40;11.65;;;5.10;99.90;;;;;;5040260;28;20537;-90
2022/04/19 04:34:34;;;;;;;19.63;12.43;;;4.90;99.90;;;;;;5031403;28;20111;-89
2022/04/19 04:37:00;;;;;;;18.88;11.77;;;4.30;99.90;;;;;;5054312;28;20565;-89
2022/04/19 04:39:25;;;;;;;19.92;12.35;;;4.30;99.90;;;;;;5037090;28;20049;-89
2022/04/19 04:41:51;;;;;;;19.55;12.27;;;4.40;99.90;;;;;;5037506;28;20406;-89
2022/04/19 04:44:17;;;;;;;18.25;12.25;;;4.40;99.90;;;;;;5054273;28;20041;-89
2022/04/19 04:49:35;;;;;;;19.30;11.73;;;4.70;99.90;;;;;;5049448;28;20040;-89
2022/04/19 04:52:01;;;;;;;18.50;11.43;;;4.50;99.90;;;;;;5038175;28;20037;-90
2022/04/19 04:54:27;;;;;;;18.65;10.77;;;4.50;99.90;;;;;;5053592;28;20471;-89
2022/04/19 04:56:53;;;;;;;18.33;11.07;;;4.50;99.90;;;;;;5020467;28;20044;-90
2022/04/19 04:59:19;;;;;;;20.65;11.00;;;4.60;99.90;;;;;;5052945;28;20540;-90
2022/04/19 05:01:44;;;;;;;18.35;11.57;;;5.30;99.90;;;;;;5020481;28;20045;-90
2022/04/19 05:04:10;;;;;;;17.38;11.00;;;4.70;99.90;;;;;;5020861;28;20047;-89
2022/04/19 05:06:36;;;;;;;21.27;10.93;;;4.80;99.90;;;;;;5053317;28;20036;-88
2022/04/19 05:09:02;;;;;;;18.13;11.13;;;4.90;99.90;;;;;;5033156;28;20069;-84
2022/04/19 05:11:30;;;;;;;16.73;10.10;;;5.00;99.90;;;;;;5034918;28;20080;-84
2022/04/19 05:13:56;;;;;;;16.80;9.73;;;5.80;99.90;;;;;;5051839;28;20045;-83
2022/04/19 05:16:22;;;;;;;16.13;10.57;;;5.10;99.90;;;;;;5034680;28;20044;-84
2022/04/19 05:18:48;;;;;;;18.95;10.80;;;5.20;99.90;;;;;;5050807;28;20056;-84
2022/04/19 05:21:14;;;;;;;17.92;9.40;;;5.60;99.90;;;;;;5018572;28;20044;-84
2022/04/19 05:23:39;;;;;;;15.38;10.15;;;5.50;99.90;;;;;;5034398;28;20398;-84
2022/04/19 05:26:05;;;;;;;13.95;9.93;;;5.60;99.90;;;;;;5051616;28;20036;-83
2022/04/19 05:28:31;;;;;;;16.52;10.23;;;5.90;99.90;;;;;;5048793;28;20068;-84
2022/04/19 05:30:57;;;;;;;15.07;9.80;;;5.90;99.90;;;;;;5027254;28;20116;-84
2022/04/19 05:33:23;;;;;;;14.10;9.57;;;6.00;99.90;;;;;;5066584;22;20049;-82
2022/04/19 05:35:49;;;;;;;18.77;10.07;;;7.00;99.90;;;;;;5054114;28;20090;-82
2022/04/19 05:38:18;;;;;;;15.90;9.82;;;6.30;99.90;;;;;;5063322;28;20039;-82
2022/04/19 05:40:44;;;;;;;17.30;10.60;;;6.50;99.90;;;;;;5054616;28;20037;-82
2022/04/19 05:43:09;;;;;;;14.65;9.75;;;6.60;99.90;;;;;;5037968;28;20110;-82
2022/04/19 05:45:35;;;;;;;17.52;9.85;;;6.80;99.90;;;;;;5043216;28;20055;-85
2022/04/19 05:48:01;;;;;;;15.70;9.10;;;7.20;99.90;;;;;;5035402;28;20071;-82
2022/04/19 05:50:26;;;;;;;17.02;9.48;;;7.20;99.90;;;;;;5044883;28;20032;-82
2022/04/19 05:52:52;;;;;;;17.58;9.93;;;7.40;99.90;;;;;;5042806;28;20120;-82
2022/04/19 05:55:18;;;;;;;15.73;9.40;;;7.60;99.90;;;;;;5036694;28;20041;-82
2022/04/19 05:57:44;;;;;;;14.40;8.90;;;7.70;99.90;;;;;;5058228;28;20051;-82
2022/04/19 06:00:10;;;;;;;13.85;9.65;;;7.90;99.90;;;;;;5053765;28;20041;-81
2022/04/19 06:05:20;;;;;;;13.95;9.23;;;8.30;99.90;;;;;;5057457;28;20045;-81
2022/04/19 06:07:47;;;;;;;13.40;8.80;;;8.60;99.90;;;;;;5056371;28;20395;-81
2022/04/19 06:10:14;;;;;;;14.15;8.98;;;8.90;99.90;;;;;;5056877;28;20037;-81
2022/04/19 06:12:43;;;;;;;15.23;9.15;;;9.20;99.90;;;;;;5054344;28;20386;-81
2022/04/19 06:15:10;;;;;;;14.07;9.02;;;9.50;99.90;;;;;;5035161;28;20037;-82
2022/04/19 06:17:38;;;;;;;15.15;8.38;;;9.80;99.90;;;;;;5038739;28;20036;-82
2022/04/19 06:20:05;;;;;;;12.65;8.82;;;10.10;99.90;;;;;;5057833;28;20059;-83
2022/04/19 06:22:31;;;;;;;15.02;8.57;;;10.80;99.90;;;;;;5053288;28;20394;-83
2022/04/19 06:24:58;;;;;;;15.15;8.70;;;10.90;99.90;;;;;;5042561;28;20099;-83
2022/04/19 06:27:24;;;;;;;13.57;8.50;;;11.50;99.90;;;;;;5057931;28;20049;-83
2022/04/19 06:29:52;;;;;;;14.32;8.65;;;12.20;99.90;;;;;;5040320;28;20115;-83
2022/04/19 06:32:21;;;;;;;13.40;8.45;;;12.80;99.90;;;;;;5043612;28;20478;-84
2022/04/19 06:34:50;;;;;;;11.50;7.78;;;13.20;99.90;;;;;;5055642;28;20088;-84
2022/04/19 06:37:16;;;;;;;13.40;7.95;;;13.70;99.90;;;;;;5038848;28;20051;-85
2022/04/19 06:39:41;;;;;;;12.10;7.70;;;14.20;99.90;;;;;;5054803;28;20116;-85
2022/04/19 06:42:08;;;;;;;14.10;8.00;;;14.60;99.90;;;;;;5049082;28;20059;-85
2022/04/19 06:44:34;;;;;;;11.52;7.85;;;14.80;99.90;;;;;;5036209;28;20086;-85
2022/04/19 06:46:59;;;;;;;10.73;7.72;;;15.20;99.90;;;;;;5051762;28;20036;-85
2022/04/19 06:49:25;;;;;;;11.77;7.72;;;15.60;99.90;;;;;;5051582;28;20051;-82
2022/04/19 06:51:51;;;;;;;12.30;7.72;;;16.00;98.40;;;;;;5033262;28;20114;-82
2022/04/19 06:54:17;;;;;;;11.38;8.00;;;16.40;98.10;;;;;;5049541;28;20032;-82
2022/04/19 06:56:45;;;;;;;14.52;7.93;;;16.70;96.50;;;;;;5023084;28;20052;-82
2022/04/19 06:59:11;;;;;;;10.77;7.60;;;17.10;96.90;;;;;;5072619;28;20047;-82
2022/04/19 07:01:39;;;;;;;10.55;7.68;;;17.50;96.20;;;;;;5051280;28;20055;-81
2022/04/19 07:04:05;;;;;;;11.63;7.90;;;17.60;96.00;;;;;;5038459;28;20044;-82
2022/04/19 07:06:31;;;;;;;10.70;7.57;;;18.00;94.50;;;;;;5059448;28;20033;-84
2022/04/19 07:08:57;;;;;;;10.30;7.32;;;18.40;94.80;;;;;;5040249;28;20049;-84
2022/04/19 07:11:22;;;;;;;12.00;7.72;;;19.00;94.80;;;;;;5050557;28;20052;-84
2022/04/19 07:13:48;;;;;;;11.02;7.25;;;19.30;94.10;;;;;;5025433;28;20047;-84
2022/04/19 07:16:14;;;;;;;12.35;8.02;;;19.70;92.80;;;;;;5035170;28;20037;-84
2022/04/19 07:18:39;;;;;;;11.20;7.57;;;19.90;91.60;;;;;;5030108;28;20127;-84
2022/04/19 07:26:45;;;;;;;11.93;7.10;;;20.40;87.90;;;;;;5037473;28;20036;-82
2022/04/19 07:29:12;;;;;;;11.43;7.45;;;19.90;87.60;;;;;;5006994;28;20508;-82
2022/04/19 07:31:42;;;;;;;11.13;8.00;;;20.00;87.20;;;;;;5047062;28;20073;-82
2022/04/19 07:34:08;;;;;;;10.45;7.40;;;20.50;86.70;;;;;;5051433;28;20537;-82
2022/04/19 07:36:37;;;;;;;12.45;7.43;;;20.60;84.10;;;;;;5050338;28;20120;-82
2022/04/19 07:39:05;;;;;;;10.02;7.57;;;20.50;83.40;;;;;;5047543;28;20048;-86
2022/04/19 07:41:32;;;;;;;10.30;7.60;;;20.40;80.80;;;;;;5030512;28;20060;-86
2022/04/19 07:43:58;;;;;;;11.82;7.47;;;20.50;83.70;;;;;;5042885;28;20037;-85
2022/04/19 07:46:24;;;;;;;10.45;7.00;;;20.80;82.50;;;;;;5009007;28;20048;-85
2022/04/19 07:48:51;;;;;;;12.43;7.10;;;21.10;81.10;;;;;;5046767;28;20084;-86
2022/04/19 07:51:18;;;;;;;11.15;7.57;;;21.60;83.10;;;;;;5044486;28;20425;-86
2022/04/19 07:53:44;;;;;;;14.75;7.90;;;22.20;82.30;;;;;;5048735;28;20047;-86
2022/04/19 07:56:10;;;;;;;10.15;7.57;;;22.90;80.50;;;;;;5053909;28;20040;-82
2022/04/19 07:58:35;;;;;;;12.35;7.55;;;23.20;75.60;;;;;;5052694;28;20077;-82
2022/04/19 08:01:01;;;;;;;11.63;7.47;;;23.40;75.70;;;;;;5055330;28;20475;-82
2022/04/19 08:03:27;;;;;;;10.10;7.32;;;23.60;75.00;;;;;;5037866;28;20033;-82
2022/04/19 08:05:53;;;;;;;8.05;6.63;;;22.80;75.20;;;;;;5055001;28;20043;-82
2022/04/19 08:08:21;;;;;;;15.10;7.28;;;23.20;74.00;;;;;;5054379;28;20045;-82
2022/04/19 08:10:48;;;;;;;10.57;6.80;;;23.40;71.40;;;;;;5050558;28;20457;-82
2022/04/19 08:13:14;;;;;;;11.00;6.60;;;23.20;69.80;;;;;;5046918;28;20041;-82
2022/04/19 08:15:40;;;;;;;9.60;6.43;;;23.60;70.20;;;;;;5055163;28;20037;-83
2022/04/19 08:18:06;;;;;;;10.18;6.63;;;23.80;70.60;;;;;;5033797;28;20072;-82
2022/04/19 08:20:32;;;;;;;13.43;6.30;;;24.00;69.80;;;;;;5055210;28;20079;-82
2022/04/19 08:22:58;;;;;;;7.68;5.60;;;23.70;68.10;;;;;;5054687;28;20040;-83
2022/04/19 08:25:24;;;;;;;8.57;5.88;;;23.50;66.90;;;;;;5054477;28;20507;-83
2022/04/19 08:27:51;;;;;;;9.50;6.03;;;23.60;69.40;;;;;;5054471;28;20041;-82
2022/04/19 08:30:18;;;;;;;8.63;5.40;;;23.80;68.50;;;;;;5054076;28;20086;-82
2022/04/19 08:32:45;;;;;;;9.73;5.65;;;24.20;67.50;;;;;;5054106;28;20408;-82
2022/04/19 08:35:12;;;;;;;7.82;5.07;;;23.20;66.00;;;;;;5052592;28;20076;-82
2022/04/19 08:37:38;;;;;;;6.97;4.97;;;23.50;66.80;;;;;;5037627;28;20191;-82
2022/04/19 08:40:09;;;;;;;7.15;4.75;;;23.60;67.70;;;;;;5053789;28;20036;-82
2022/04/19 08:42:37;;;;;;;5.88;4.13;;;24.70;68.10;;;;;;5054156;28;20037;-82
2022/04/19 08:45:04;;;;;;;6.95;4.07;;;25.10;66.30;;;;;;5037979;28;20391;-82
2022/04/19 08:47:32;;;;;;;5.95;4.18;;;25.60;63.10;;;;;;5053728;28;20094;-82
2022/04/19 08:50:02;;;;;;;6.00;4.10;;;24.70;60.50;;;;;;5053657;28;20037;-82
2022/04/19 08:52:29;;;;;;;8.07;4.40;;;25.00;63.20;;;;;;5024199;28;20041;-82
2022/04/19 08:57:39;;;;;;;7.13;4.07;;;25.20;62.50;;;;;;5048478;28;20041;-82
2022/04/19 09:00:07;;;;;;;6.10;4.30;;;25.20;61.90;;;;;;5053517;28;20052;-83
2022/04/19 09:02:37;;;;;;;6.50;3.78;;;26.00;62.80;;;;;;5053556;28;20398;-86
2022/04/19 09:05:19;;;;;;;5.38;3.63;;;26.80;61.00;;;;;;5035285;28;20080;-86
2022/04/19 09:07:51;;;;;;;8.00;4.03;;;27.40;57.20;;;;;;5053293;28;20090;-86
2022/04/19 09:10:31;;;;;;;6.43;4.25;;;27.60;58.70;;;;;;5053849;28;20403;-86
2022/04/19 09:12:59;;;;;;;14.32;4.00;;;27.10;57.50;;;;;;5056971;28;20084;-85
2022/04/19 09:15:38;;;;;;;7.60;4.30;;;27.60;57.30;;;;;;5051036;28;20124;-85
2022/04/19 09:18:29;;;;;;;6.45;4.30;;;28.00;57.40;;;;;;5034868;28;20529;-86
2022/04/19 09:20:55;;;;;;;5.38;3.78;;;28.40;56.00;;;;;;5057823;28;20041;-86
2022/04/19 09:23:21;;;;;;;8.93;4.75;;;28.60;55.30;;;;;;5059224;28;20051;-86
2022/04/19 09:25:50;;;;;;;6.47;4.30;;;28.70;55.80;;;;;;5057522;28;21402;-86
2022/04/19 09:28:18;;;;;;;12.68;3.85;;;29.00;56.30;;;;;;5060553;28;20041;-85
2022/04/19 09:30:45;;;;;;;6.70;3.33;;;29.30;55.70;;;;;;5060108;28;20056;-86
2022/04/19 09:33:11;;;;;;;4.53;3.20;;;29.30;53.60;;;;;;5025204;28;20403;-86
2022/04/19 09:35:48;;;;;;;10.15;3.60;;;29.70;53.60;;;;;;5061337;28;20080;-83
2022/04/19 09:38:15;;;;;;;8.70;2.50;;;30.30;52.60;;;;;;5047303;28;20480;-82
2022/04/19 09:40:46;;;;;;;3.83;2.65;;;30.30;51.60;;;;;;5050176;28;20372;-83
2022/04/19 09:43:20;;;;;;;3.80;2.30;;;30.50;50.90;;;;;;5042935;28;20056;-82
2022/04/19 09:45:58;;;;;;;3.83;2.40;;;30.40;49.50;;;;;;5050115;28;20053;-82
2022/04/19 09:48:28;;;;;;;4.05;2.20;;;29.70;48.00;;;;;;5048001;28;20418;-82
2022/04/19 09:51:06;;;;;;;4.03;1.95;;;29.70;50.20;;;;;;5050703;28;20044;-82
2022/04/19 09:53:39;;;;;;;4.30;2.00;;;29.10;48.70;;;;;;5034606;28;20041;-82
2022/04/19 09:56:09;;;;;;;3.33;2.00;;;29.30;47.80;;;;;;5046548;28;20042;-82
2022/04/19 09:58:37;;;;;;;2.90;1.90;;;28.80;45.40;;;;;;5037714;28;20052;-82
2022/04/19 10:01:03;;;;;;;2.97;1.60;;;28.90;44.20;;;;;;5035369;28;20047;-82
2022/04/19 10:08:59;;;;;;;3.92;2.08;;;29.10;47.40;;;;;;5042147;28;20426;-81
2022/04/19 10:11:28;;;;;;;3.58;2.00;;;29.40;46.70;;;;;;5034529;28;20055;-81
2022/04/19 10:13:58;;;;;;;4.03;2.22;;;29.50;44.40;;;;;;5036136;28;20049;-81
2022/04/19 10:16:24;;;;;;;3.60;1.50;;;29.60;44.90;;;;;;5030189;28;20032;-81
2022/04/19 10:18:50;;;;;;;2.53;1.60;;;29.50;45.00;;;;;;5046955;28;20379;-81
2022/04/19 10:21:43;;;;;;;2.85;1.77;;;28.80;42.40;;;;;;5053782;28;20032;-81
2022/04/19 10:24:14;;;;;;;2.75;1.88;;;28.30;41.10;;;;;;5057032;28;20040;-81
2022/04/19 10:26:48;;;;;;;4.82;1.90;;;28.40;44.00;;;;;;5048635;28;20037;-81
2022/04/19 10:29:24;;;;;;;3.40;2.20;;;28.90;43.40;;;;;;5035173;28;20071;-81
2022/04/19 10:32:02;;;;;;;3.53;2.10;;;28.70;43.20;;;;;;5074042;28;20119;-81
2022/04/19 10:34:33;;;;;;;3.88;1.70;;;28.40;42.70;;;;;;5040650;28;20530;-81
2022/04/19 10:37:11;;;;;;;3.78;2.10;;;28.70;43.40;;;;;;5054928;28;20040;-81
2022/04/19 10:39:50;;;;;;;3.75;2.00;;;28.00;43.20;;;;;;5063920;28;20075;-81
2022/04/19 10:42:29;;;;;;;4.38;2.10;;;28.50;44.60;;;;;;5038001;28;20053;-81
2022/04/19 10:44:55;;;;;;;3.33;1.70;;;28.30;44.30;;;;;;5052477;28;20102;-82
2022/04/19 10:47:28;;;;;;;3.65;2.00;;;27.60;45.20;;;;;;5052335;28;20068;-82
2022/04/19 10:50:05;;;;;;;4.07;2.03;;;28.00;44.80;;;;;;5024266;28;20511;-81
2022/04/19 10:52:37;;;;;;;5.47;2.00;;;28.50;46.20;;;;;;5043843;28;20041;-81
2022/04/19 10:55:10;;;;;;;4.03;1.80;;;29.00;44.50;;;;;;5050516;28;20076;-82
2022/04/19 11:00:41;;;;;;;2.15;1.75;;;29.00;44.60;;;;;;5044028;28;20429;-81
2022/04/19 11:03:08;;;;;;;3.13;1.95;;;28.80;43.50;;;;;;5049834;28;20480;-81
2022/04/19 11:05:46;;;;;;;3.40;2.00;;;28.10;42.90;;;;;;5052465;28;20499;-81
2022/04/19 11:08:29;;;;;;;3.78;2.10;;;27.20;44.20;;;;;;5035832;28;20033;-81
2022/04/19 11:10:55;;;;;;;5.60;2.08;;;27.60;44.70;;;;;;5029305;28;20045;-81
2022/04/19 11:13:40;;;;;;;4.90;2.10;;;27.40;45.20;;;;;;5048336;28;20040;-82
2022/04/19 11:16:08;;;;;;;4.35;1.95;;;26.60;44.80;;;;;;5050937;28;20427;-85
2022/04/19 11:18:40;;;;;;;7.03;2.05;;;26.20;46.70;;;;;;5021342;28;20492;-85
2022/04/19 11:21:08;;;;;;;3.65;2.10;;;26.70;46.80;;;;;;5032603;28;20121;-85
2022/04/19 11:23:47;;;;;;;3.72;2.20;;;27.50;48.10;;;;;;5051326;28;20491;-85
2022/04/19 11:26:33;;;;;;;4.10;2.13;;;26.30;44.70;;;;;;5033934;28;20475;-85
2022/04/19 11:29:08;;;;;;;4.43;2.35;;;26.20;46.60;;;;;;5018349;28;20102;-84
2022/04/19 11:31:43;;;;;;;3.88;2.10;;;26.40;46.60;;;;;;5059791;28;20049;-81
2022/04/19 11:34:13;;;;;;;8.73;2.33;;;26.70;46.70;;;;;;5061461;28;20061;-81
2022/04/19 11:36:39;;;;;;;4.22;2.28;;;27.10;47.30;;;;;;5062184;28;20095;-81
2022/04/19 11:46:43;;;;;;;3.90;2.13;;;27.40;46.60;;;;;;5060424;28;20458;-81
2022/04/19 11:47:58;;;;;;;5.22;2.40;;;27.30;47.60;;;;;;5043143;28;20398;-81
2022/04/19 11:50:30;;;;;;;7.78;2.42;;;27.50;46.90;;;;;;5061251;28;20037;-83
2022/04/19 11:52:57;;;;;;;4.20;2.40;;;28.10;46.90;;;;;;5059890;28;20037;-84
2022/04/19 11:55:25;;;;;;;3.95;2.42;;;28.80;47.20;;;;;;5041141;28;21866;-84
2022/04/19 11:58:07;;;;;;;5.85;2.28;;;28.50;47.00;;;;;;5061680;28;20505;-84
2022/04/19 12:00:33;;;;;;;15.18;2.50;;;28.70;47.70;;;;;;5045640;28;20048;-84
2022/04/19 12:03:23;;;;;;;4.70;2.35;;;28.60;46.60;;;;;;5043883;28;20062;-83
2022/04/19 12:05:48;;;;;;;5.45;2.65;;;28.30;45.50;;;;;;5054892;28;20033;-81
2022/04/19 12:08:33;;;;;;;3.72;2.50;;;28.00;47.20;;;;;;5057431;28;20102;-81
2022/04/19 12:11:02;;;;;;;6.07;2.92;;;27.60;46.90;;;;;;5059474;28;20204;-81
2022/04/19 12:13:28;;;;;;;4.80;2.95;;;27.90;46.20;;;;;;5039520;28;20514;-80
2022/04/19 12:15:54;;;;;;;3.28;2.28;;;27.10;44.80;;;;;;5042989;28;20037;-81
2022/04/19 12:18:30;;;;;;;6.10;2.35;;;26.20;46.40;;;;;;5009612;28;20030;-82
2022/04/19 12:20:56;;;;;;;6.13;2.72;;;26.70;47.20;;;;;;5077791;28;20041;-81
2022/04/19 12:23:22;;;;;;;8.73;2.80;;;26.50;46.00;;;;;;5029448;28;20044;-84
2022/04/19 12:26:19;;;;;;;5.13;2.60;;;26.40;46.40;;;;;;5040832;28;20525;-84
2022/04/19 12:28:46;;;;;;;4.30;2.38;;;25.60;47.90;;;;;;5042240;28;20055;-83
2022/04/19 12:31:33;;;;;;;4.25;2.53;;;25.70;48.60;;;;;;5046364;28;20036;-85
2022/04/19 12:34:02;;;;;;;4.50;2.60;;;25.30;47.80;;;;;;5053887;28;20553;-84
2022/04/19 12:36:40;;;;;;;5.28;2.78;;;25.00;47.70;;;;;;5053860;28;20045;-84
2022/04/19 12:39:05;;;;;;;4.20;2.97;;;24.70;48.90;;;;;;5037109;28;20502;-81
2022/04/19 12:41:45;;;;;;;4.07;2.60;;;24.70;49.70;;;;;;5035439;28;20058;-81
2022/04/19 12:44:16;;;;;;;4.38;2.72;;;24.20;50.10;;;;;;5033411;28;20094;-82
2022/04/19 12:46:53;;;;;;;5.25;3.15;;;24.00;51.10;;;;;;5032526;28;20522;-82
2022/04/19 12:49:30;;;;;;;5.30;2.50;;;24.10;51.50;;;;;;5048356;28;20091;-82
2022/04/19 12:52:04;;;;;;;3.55;2.47;;;23.70;52.00;;;;;;5053548;28;20073;-82
2022/04/19 12:54:30;;;;;;;4.28;2.47;;;23.60;53.30;;;;;;5053336;28;20044;-80
2022/04/19 12:57:02;;;;;;;5.70;2.13;;;23.60;52.80;;;;;;5063209;28;20443;-82
2022/04/19 12:59:32;;;;;;;4.07;2.30;;;23.20;52.80;;;;;;5039879;28;20083;-83
2022/04/19 13:01:59;;;;;;;14.18;2.55;;;23.00;52.60;;;;;;5060194;28;20047;-83
2022/04/19 13:04:25;;;;;;;3.63;2.25;;;22.70;51.10;;;;;;5057522;28;20123;-83
2022/04/19 13:12:22;;;;;;;3.80;2.20;;;22.10;54.40;;;;;;5057972;28;20107;-84
2022/04/19 13:14:50;;;;;;;4.88;2.40;;;22.20;55.20;;;;;;5057208;28;20445;-85
2022/04/19 13:17:16;;;;;;;2.95;2.03;;;22.10;55.00;;;;;;5041447;28;20079;-85
2022/04/19 13:19:43;;;;;;;3.22;1.92;;;21.30;54.50;;;;;;5058734;28;20041;-85
2022/04/19 13:22:10;;;;;;;4.20;2.40;;;21.20;55.10;;;;;;5057857;28;20506;-84
2022/04/19 13:24:36;;;;;;;4.68;2.70;;;21.30;55.40;;;;;;5046387;28;20053;-85
2022/04/19 13:27:03;;;;;;;3.88;2.20;;;21.30;55.80;;;;;;5053659;28;20080;-84
2022/04/19 13:29:29;;;;;;;4.57;2.35;;;21.20;54.60;;;;;;5056965;28;20057;-84